createdAt,value
2022-09-06T00:01:20.022Z,100.00
2022-09-06T00:04:23.463Z,100.00
2022-09-06T00:07:26.790Z,100.00
2022-09-06T00:10:31.542Z,100.00
2022-09-06T00:13:34.990Z,100.00
2022-09-06T00:16:40.726Z,100.00
2022-09-06T00:19:43.468Z,100.00
2022-09-06T00:22:46.473Z,100.00
2022-09-06T00:25:49.107Z,100.00
2022-09-06T00:28:52.340Z,100.00
2022-09-06T00:31:55.012Z,100.00
2022-09-06T00:34:57.982Z,100.00
2022-09-06T00:38:02.087Z,100.00
2022-09-06T00:41:07.005Z,100.00
2022-09-06T00:44:09.718Z,100.00
2022-09-06T00:47:12.832Z,100.00
2022-09-06T00:50:18.417Z,100.00
2022-09-06T00:53:21.980Z,100.00
2022-09-06T00:56:26.516Z,100.00
2022-09-06T00:59:32.478Z,100.00
2022-09-06T01:02:35.290Z,100.00
2022-09-06T01:05:59.102Z,100.00
2022-09-06T01:09:21.082Z,100.00
2022-09-06T01:12:34.409Z,100.00
2022-09-06T01:16:29.509Z,100.00
2022-09-06T01:19:41.760Z,100.00
2022-09-06T01:23:18.179Z,100.00
2022-09-06T01:26:51.414Z,100.00
2022-09-06T01:30:03.256Z,100.00
2022-09-06T01:33:32.456Z,100.00
2022-09-06T01:37:06.161Z,100.00
2022-09-06T01:40:08.353Z,100.00
2022-09-06T01:43:13.754Z,100.00
2022-09-06T01:46:34.828Z,100.00
2022-09-06T01:50:12.674Z,100.00
2022-09-06T01:53:39.622Z,100.00
2022-09-06T01:56:51.041Z,100.00
2022-09-06T02:00:10.946Z,100.00
2022-09-06T02:03:34.820Z,100.00
2022-09-06T02:06:43.470Z,100.00
2022-09-06T02:09:53.867Z,100.00
2022-09-06T02:13:01.431Z,100.00
2022-09-06T02:16:07.192Z,100.00
2022-09-06T02:19:37.426Z,100.00
2022-09-06T02:22:44.398Z,100.00
2022-09-06T02:25:53.216Z,100.00
2022-09-06T02:28:57.124Z,100.00
2022-09-06T02:32:18.558Z,100.00
2022-09-06T02:35:21.486Z,100.00
2022-09-06T02:38:27.113Z,100.00
2022-09-06T02:41:31.172Z,100.00
2022-09-06T02:44:34.122Z,100.00
2022-09-06T02:47:36.828Z,100.00
2022-09-06T02:50:39.877Z,100.00
2022-09-06T02:53:42.542Z,100.00
2022-09-06T02:56:47.984Z,100.00
2022-09-06T02:59:54.473Z,100.00
2022-09-06T03:02:57.680Z,100.00
2022-09-06T03:06:00.418Z,100.00
2022-09-06T03:09:03.657Z,100.00
2022-09-06T03:12:06.441Z,100.00
2022-09-06T03:15:10.281Z,100.00
2022-09-06T03:18:12.942Z,100.00
2022-09-06T03:21:15.926Z,100.00
2022-09-06T03:24:18.525Z,100.00
2022-09-06T03:27:21.450Z,100.00
2022-09-06T03:30:24.213Z,100.00
2022-09-06T03:33:27.313Z,100.00
2022-09-06T03:36:30.024Z,100.00
2022-09-06T03:39:33.281Z,100.00
2022-09-06T03:42:36.088Z,100.00
2022-09-06T03:45:39.495Z,100.00
2022-09-06T03:48:42.384Z,100.00
2022-09-06T03:51:45.529Z,100.00
2022-09-06T03:54:48.150Z,100.00
2022-09-06T03:57:51.038Z,100.00
2022-09-06T04:01:01.871Z,100.00
2022-09-06T04:04:05.020Z,100.00
2022-09-06T04:07:07.611Z,100.00
2022-09-06T04:10:11.307Z,100.00
2022-09-06T04:13:13.875Z,100.00
2022-09-06T04:16:18.789Z,100.00
2022-09-06T04:19:21.549Z,100.00
2022-09-06T04:22:24.577Z,100.00
2022-09-06T04:25:27.178Z,100.00
2022-09-06T04:28:30.636Z,100.00
2022-09-06T04:31:33.526Z,100.00
2022-09-06T04:34:36.603Z,100.00
2022-09-06T04:37:40.211Z,100.00
2022-09-06T04:40:43.181Z,100.00
2022-09-06T04:43:46.073Z,100.00
2022-09-06T04:46:49.202Z,100.00
2022-09-06T04:49:52.592Z,100.00
2022-09-06T04:52:55.582Z,100.00
2022-09-06T04:55:58.645Z,100.00
2022-09-06T04:59:01.644Z,100.00
2022-09-06T05:02:04.531Z,100.00
2022-09-06T05:05:07.850Z,100.00
2022-09-06T05:08:10.610Z,100.00
2022-09-06T05:11:14.064Z,100.00
2022-09-06T05:14:16.681Z,100.00
2022-09-06T05:17:19.645Z,100.00
2022-09-06T05:20:22.322Z,100.00
2022-09-06T05:23:26.313Z,100.00
2022-09-06T05:26:28.917Z,99.50
2022-09-06T05:29:31.934Z,93.91
2022-09-06T05:32:34.646Z,89.09
2022-09-06T05:35:37.837Z,86.35
2022-09-06T05:38:40.902Z,83.36
2022-09-06T05:41:44.181Z,82.43
2022-09-06T05:44:46.891Z,80.53
2022-09-06T05:47:49.846Z,78.49
2022-09-06T05:51:06.992Z,75.53
2022-09-06T05:54:13.096Z,73.76
2022-09-06T05:57:16.019Z,71.76
2022-09-06T06:00:18.810Z,67.14
2022-09-06T06:03:21.840Z,63.40
2022-09-06T06:06:26.010Z,60.57
2022-09-06T06:09:29.030Z,59.21
2022-09-06T06:12:31.675Z,58.60
2022-09-06T06:15:34.654Z,57.62
2022-09-06T06:18:37.414Z,55.05
2022-09-06T06:21:40.745Z,55.20
2022-09-06T06:24:43.519Z,53.62
2022-09-06T06:27:46.434Z,54.52
2022-09-06T06:30:50.071Z,57.28
2022-09-06T06:33:53.121Z,56.80
2022-09-06T06:36:55.782Z,54.65
2022-09-06T06:39:59.110Z,53.78
2022-09-06T06:43:01.782Z,51.14
2022-09-06T06:46:10.158Z,50.15
2022-09-06T06:49:12.932Z,48.85
2022-09-06T06:52:15.998Z,48.13
2022-09-06T06:55:18.639Z,46.80
2022-09-06T06:58:21.693Z,45.50
2022-09-06T07:01:26.623Z,48.32
2022-09-06T07:04:29.675Z,47.31
2022-09-06T07:07:33.634Z,47.42
2022-09-06T07:10:38.821Z,46.89
2022-09-06T07:13:41.753Z,46.64
2022-09-06T07:16:45.773Z,48.24
2022-09-06T07:26:35.372Z,50.56
2022-09-06T07:29:38.582Z,50.24
2022-09-06T07:32:41.227Z,49.77
2022-09-06T07:35:55.115Z,50.07
2022-09-06T07:38:57.718Z,47.28
2022-09-06T07:42:01.580Z,46.65
2022-09-06T07:45:05.710Z,47.90
2022-09-06T07:48:08.761Z,47.26
2022-09-06T07:51:30.202Z,45.80
2022-09-06T07:54:33.121Z,46.73
2022-09-06T07:57:35.803Z,48.17
2022-09-06T08:00:41.196Z,48.19
2022-09-06T08:03:45.780Z,47.90
2022-09-06T08:10:17.066Z,49.25
2022-09-06T08:13:21.320Z,48.56
2022-09-06T08:16:27.890Z,46.37
2022-09-06T08:19:31.485Z,46.34
2022-09-06T08:22:34.484Z,45.75
2022-09-06T08:25:37.226Z,44.60
2022-09-06T08:28:40.238Z,45.73
2022-09-06T08:31:44.364Z,47.42
2022-09-06T08:34:47.357Z,46.54
2022-09-06T08:37:50.002Z,51.20
2022-09-06T08:40:54.818Z,51.96
2022-09-06T08:47:25.295Z,53.64
2022-09-06T08:50:29.212Z,53.35
2022-09-06T08:53:35.083Z,53.58
2022-09-06T08:57:03.076Z,52.56
2022-09-06T09:00:11.038Z,52.99
2022-09-06T09:03:21.580Z,50.54
2022-09-06T09:06:26.945Z,49.75
2022-09-06T09:09:32.573Z,49.54
2022-09-06T09:12:42.888Z,48.90
2022-09-06T09:15:45.739Z,47.07
2022-09-06T09:19:01.863Z,50.27
2022-09-06T09:22:04.589Z,49.72
2022-09-06T09:25:11.958Z,48.71
2022-09-06T09:28:19.126Z,48.19
2022-09-06T09:31:41.029Z,46.41
2022-09-06T09:34:43.822Z,46.82
2022-09-06T09:37:48.488Z,46.16
2022-09-06T09:40:54.581Z,47.40
2022-09-06T09:44:04.736Z,47.76
2022-09-06T09:47:24.814Z,47.05
2022-09-06T09:50:31.155Z,45.66
2022-09-06T09:53:33.799Z,47.34
2022-09-06T09:56:43.477Z,44.61
2022-09-06T09:59:56.377Z,45.98
2022-09-06T10:02:59.503Z,45.35
2022-09-06T10:06:03.390Z,44.76
2022-09-06T10:09:41.604Z,44.33
2022-09-06T10:12:44.605Z,43.19
2022-09-06T10:15:49.379Z,42.85
2022-09-06T10:18:52.876Z,43.45
2022-09-06T10:22:03.997Z,43.79
2022-09-06T10:25:55.319Z,44.62
2022-09-06T10:29:05.863Z,44.17
2022-09-06T10:32:32.792Z,43.77
2022-09-06T10:35:38.332Z,43.87
2022-09-06T10:39:04.242Z,44.28
2022-09-06T10:42:07.069Z,43.18
2022-09-06T10:45:36.300Z,42.78
2022-09-06T10:48:46.449Z,43.18
2022-09-06T10:51:54.578Z,43.19
2022-09-06T10:55:04.007Z,43.68
2022-09-06T10:58:19.356Z,44.21
2022-09-06T11:01:37.748Z,43.74
2022-09-06T11:12:22.629Z,43.94
2022-09-06T11:15:29.929Z,42.68
2022-09-06T11:18:46.986Z,43.13
2022-09-06T11:22:12.235Z,43.73
2022-09-06T11:25:33.309Z,43.71
2022-09-06T11:28:39.472Z,43.14
2022-09-06T11:32:18.805Z,43.49
2022-09-06T11:35:34.952Z,43.73
2022-09-06T11:38:37.984Z,43.09
2022-09-06T11:41:42.741Z,41.90
2022-09-06T11:44:57.989Z,41.25
2022-09-06T11:48:35.147Z,41.75
2022-09-06T11:51:45.227Z,41.81
2022-09-06T11:54:48.387Z,41.90
2022-09-06T11:57:58.255Z,41.52
2022-09-06T12:01:12.741Z,42.28
2022-09-06T12:04:15.756Z,41.99
2022-09-06T12:07:18.782Z,41.49
2022-09-06T12:10:30.814Z,42.75
2022-09-06T12:14:04.487Z,40.40
2022-09-06T12:17:08.860Z,41.31
2022-09-06T12:20:11.556Z,41.41
2022-09-06T12:23:35.970Z,41.65
2022-09-06T12:27:07.841Z,41.43
2022-09-06T12:30:29.971Z,40.38
2022-09-06T12:33:36.359Z,39.43
2022-09-06T12:36:55.623Z,40.05
2022-09-06T12:39:59.769Z,40.42
2022-09-06T12:43:05.050Z,40.66
2022-09-06T12:46:08.346Z,40.37
2022-09-06T12:49:12.798Z,40.29
2022-09-06T12:52:19.609Z,40.56
2022-09-06T12:55:32.569Z,38.53
2022-09-06T12:58:36.508Z,40.63
2022-09-06T13:01:42.362Z,40.63
2022-09-06T13:04:55.434Z,39.90
2022-09-06T13:08:04.458Z,38.50
2022-09-06T13:11:11.094Z,39.52
2022-09-06T13:14:35.389Z,39.50
2022-09-06T13:17:38.679Z,38.72
2022-09-06T13:20:41.734Z,38.77
2022-09-06T13:23:51.021Z,39.17
2022-09-06T13:26:54.534Z,39.55
2022-09-06T13:30:05.880Z,39.77
2022-09-06T13:33:24.492Z,38.87
2022-09-06T13:36:33.864Z,38.13
2022-09-06T13:39:38.309Z,38.54
2022-09-06T13:42:41.235Z,38.07
2022-09-06T13:45:47.293Z,38.23
2022-09-06T13:48:49.982Z,39.18
2022-09-06T13:51:55.183Z,38.93
2022-09-06T13:54:59.263Z,39.08
2022-09-06T13:58:02.205Z,39.58
2022-09-06T14:01:10.011Z,40.08
2022-09-06T14:04:19.693Z,39.58
2022-09-06T14:07:23.044Z,40.56
2022-09-06T14:10:26.059Z,40.88
2022-09-06T14:13:30.296Z,40.98
2022-09-06T14:16:34.206Z,41.12
2022-09-06T14:19:36.853Z,40.02
2022-09-06T14:22:39.807Z,40.07
2022-09-06T14:25:42.442Z,39.51
2022-09-06T14:28:45.652Z,40.12
2022-09-06T14:31:49.058Z,39.44
2022-09-06T14:34:52.173Z,39.99
2022-09-06T14:37:54.757Z,39.67
2022-09-06T14:41:04.057Z,39.88
2022-09-06T14:44:06.844Z,39.65
2022-09-06T14:47:09.934Z,39.94
2022-09-06T14:50:12.684Z,40.47
2022-09-06T14:53:38.945Z,39.88
2022-09-06T14:56:42.034Z,39.65
2022-09-06T14:59:45.131Z,39.42
2022-09-06T15:02:47.776Z,39.11
2022-09-06T15:05:50.900Z,39.02
2022-09-06T15:08:58.530Z,39.22
2022-09-06T15:12:02.439Z,39.26
2022-09-06T15:15:06.032Z,39.17
2022-09-06T15:18:09.014Z,40.00
2022-09-06T15:21:13.582Z,40.45
2022-09-06T15:24:17.065Z,41.38
2022-09-06T15:27:19.728Z,41.74
2022-09-06T15:30:22.690Z,41.65
2022-09-06T15:33:29.860Z,42.26
2022-09-06T15:36:33.498Z,43.00
2022-09-06T15:39:36.358Z,42.96
2022-09-06T15:42:39.807Z,43.34
2022-09-06T15:45:49.404Z,43.43
2022-09-06T15:48:53.876Z,44.23
2022-09-06T15:51:58.502Z,44.09
2022-09-06T15:55:19.995Z,43.58
2022-09-06T15:58:24.586Z,43.33
2022-09-06T16:01:27.640Z,43.41
2022-09-06T16:04:30.723Z,44.75
2022-09-06T16:07:33.509Z,44.41
2022-09-06T16:10:39.106Z,44.55
2022-09-06T16:13:43.303Z,44.76
2022-09-06T16:16:46.350Z,44.36
2022-09-06T16:19:49.876Z,44.84
2022-09-06T16:22:52.788Z,45.11
2022-09-06T16:25:55.570Z,46.02
2022-09-06T16:28:59.628Z,46.14
2022-09-06T16:32:02.622Z,46.73
2022-09-06T16:35:06.160Z,46.17
2022-09-06T16:38:09.839Z,46.80
2022-09-06T16:41:23.696Z,47.15
2022-09-06T16:44:26.399Z,47.66
2022-09-06T16:47:31.826Z,48.17
2022-09-06T16:50:34.708Z,49.51
2022-09-06T16:53:40.285Z,50.18
2022-09-06T16:56:43.841Z,50.76
2022-09-06T16:59:46.798Z,50.88
2022-09-06T17:02:49.537Z,51.88
2022-09-06T17:05:53.246Z,52.28
2022-09-06T17:08:58.522Z,52.30
2022-09-06T17:12:01.496Z,53.38
2022-09-06T17:15:04.486Z,54.25
2022-09-06T17:18:08.320Z,54.63
2022-09-06T17:21:11.021Z,54.54
2022-09-06T17:24:14.041Z,56.18
2022-09-06T17:27:16.889Z,56.85
2022-09-06T17:30:20.463Z,57.58
2022-09-06T17:33:23.977Z,58.18
2022-09-06T17:36:30.650Z,58.83
2022-09-06T17:39:33.971Z,59.18
2022-09-06T17:42:37.196Z,59.78
2022-09-06T17:45:45.398Z,60.57
2022-09-06T17:48:48.412Z,61.05
2022-09-06T17:51:52.221Z,61.91
2022-09-06T17:54:55.139Z,62.69
2022-09-06T17:57:58.617Z,63.28
2022-09-06T18:01:06.311Z,64.04
2022-09-06T18:04:10.641Z,64.94
2022-09-06T18:07:13.221Z,65.57
2022-09-06T18:10:17.775Z,66.22
2022-09-06T18:13:20.385Z,66.66
2022-09-06T18:16:24.245Z,67.19
2022-09-06T18:19:28.005Z,67.56
2022-09-06T18:22:31.118Z,68.01
2022-09-06T18:25:33.742Z,68.75
2022-09-06T18:31:41.068Z,70.01
2022-09-06T18:34:44.043Z,69.70
2022-09-06T18:37:46.690Z,67.93
2022-09-06T18:41:01.010Z,68.00
2022-09-06T18:44:05.300Z,68.81
2022-09-06T18:47:09.760Z,69.95
2022-09-06T18:50:12.513Z,70.96
2022-09-06T18:53:18.264Z,71.98
2022-09-06T18:56:21.098Z,72.49
2022-09-06T18:59:24.387Z,73.40
2022-09-06T19:02:28.587Z,74.04
2022-09-06T19:05:35.620Z,74.60
2022-09-06T19:08:39.086Z,75.30
2022-09-06T19:11:43.687Z,76.00
2022-09-06T19:14:46.482Z,76.84
2022-09-06T19:17:50.894Z,76.97
2022-09-06T19:20:58.552Z,77.41
2022-09-06T19:24:06.947Z,77.96
2022-09-06T19:27:10.677Z,78.30
2022-09-06T19:30:13.889Z,78.63
2022-09-06T19:33:17.568Z,78.92
2022-09-06T19:36:22.178Z,79.61
2022-09-06T19:39:32.343Z,80.19
2022-09-06T19:42:38.305Z,80.82
2022-09-06T19:45:41.620Z,81.49
2022-09-06T19:48:46.870Z,81.72
2022-09-06T19:51:50.997Z,82.44
2022-09-06T19:54:53.987Z,83.03
2022-09-06T19:57:57.627Z,83.76
2022-09-06T20:01:00.995Z,83.78
2022-09-06T20:04:07.843Z,83.88
2022-09-06T20:07:10.630Z,84.42
2022-09-06T20:10:13.714Z,84.79
2022-09-06T20:13:16.530Z,84.99
2022-09-06T20:16:20.985Z,85.24
2022-09-06T20:19:23.963Z,85.38
2022-09-06T20:22:26.980Z,85.93
2022-09-06T20:25:29.591Z,85.65
2022-09-06T20:28:34.122Z,85.90
2022-09-06T20:31:38.254Z,86.31
2022-09-06T20:34:41.701Z,86.69
2022-09-06T20:37:44.402Z,86.88
2022-09-06T20:40:47.399Z,87.39
2022-09-06T20:43:58.030Z,87.74
2022-09-06T20:47:01.785Z,87.69
2022-09-06T20:50:05.157Z,87.91
2022-09-06T20:53:08.456Z,87.71
2022-09-06T20:56:16.605Z,87.92
2022-09-06T20:59:19.751Z,88.39
2022-09-06T21:02:22.394Z,88.44
2022-09-06T21:05:25.414Z,88.89
2022-09-06T21:08:31.680Z,88.89
2022-09-06T21:11:38.152Z,89.23
2022-09-06T21:14:40.824Z,89.58
2022-09-06T21:17:44.689Z,89.67
2022-09-06T21:20:58.218Z,89.95
2022-09-06T21:24:02.774Z,90.31
2022-09-06T21:27:06.890Z,90.77
2022-09-06T21:30:10.874Z,90.84
2022-09-06T21:33:14.387Z,91.20
2022-09-06T21:36:19.537Z,91.09
2022-09-06T21:39:22.154Z,91.12
2022-09-06T21:42:25.251Z,91.48
2022-09-06T21:45:27.882Z,91.74
2022-09-06T21:48:31.229Z,92.46
2022-09-06T21:51:34.852Z,92.47
2022-09-06T21:54:37.842Z,92.56
2022-09-06T21:57:40.529Z,92.65
2022-09-06T22:00:46.196Z,93.07
2022-09-06T22:03:49.769Z,93.44
2022-09-06T22:06:52.386Z,93.61
2022-09-06T22:09:56.390Z,93.81
2022-09-06T22:12:59.059Z,94.37
2022-09-06T22:16:07.664Z,94.47
2022-09-06T22:19:11.490Z,94.51
2022-09-06T22:22:14.516Z,94.82
2022-09-06T22:25:17.284Z,95.28
2022-09-06T22:28:20.477Z,95.61
2022-09-06T22:31:25.008Z,95.80
2022-09-06T22:34:28.009Z,95.92
2022-09-06T22:37:30.665Z,96.36
2022-09-06T22:40:33.751Z,96.81
2022-09-06T22:43:36.377Z,97.17
2022-09-06T22:46:39.730Z,97.65
2022-09-06T22:49:42.823Z,98.18
2022-09-06T22:52:45.836Z,98.78
2022-09-06T22:55:48.506Z,99.46
2022-09-06T22:58:51.512Z,99.86
2022-09-06T23:01:54.150Z,100.00
2022-09-06T23:04:57.672Z,100.00
2022-09-06T23:08:02.117Z,100.00
2022-09-06T23:11:07.566Z,100.00
2022-09-06T23:14:10.125Z,100.00
2022-09-06T23:17:14.758Z,100.00
2022-09-06T23:20:18.073Z,100.00
2022-09-06T23:23:20.999Z,100.00
2022-09-06T23:26:31.766Z,100.00
2022-09-06T23:29:35.207Z,100.00
2022-09-06T23:32:38.152Z,100.00
2022-09-06T23:35:41.202Z,100.00
2022-09-06T23:38:43.866Z,100.00
2022-09-06T23:41:47.043Z,100.00
2022-09-06T23:44:54.460Z,100.00
2022-09-06T23:47:57.365Z,100.00
2022-09-06T23:51:00.756Z,100.00
2022-09-06T23:54:04.037Z,100.00
2022-09-06T23:57:06.717Z,100.00
